Terminal Aerodrome Forecast
Issued by NWS

Home | Current Version | Previous Version | Text Only | Print | Product List | Glossary On
Versions: 1 2 3 4 5 6 7 8 9 10 11 12 13 14 15 16 17 18 19 20 21 22 23 24 25 26 27 28 29 30 31 32 33 34
000
FTUS43 KGLD 282321
TAFMCK
TAF
KMCK 282321Z 2900/2924 10010KT P6SM VCTS BKN040CB
      TEMPO 2900/2903 VRB25G35KT 3SM TSRA BKN040CB
     FM290600 29006KT P6SM BKN080
     FM291300 33012KT P6SM SCT025 SCT250
     FM291800 34013G19KT P6SM VCTS SCT050CB=

USA.gov is the U.S. government's official web portal to all federal, state and local government web resources and services.